Time;durP1;ratioP1;P1;durP2;ratioP2;P2;SDS_P1;SDS_P2;PMS_P1;PMS_P2;Temp;Humidity;BMP_temperature;BMP_pressure;BME280_temperature;BME280_humidity;BME280_pressure;Samples;Min_cycle;Max_cycle;Signal;HPM_P1;HPM_P2
2023/08/02 00:00:03;;;;;;;3.07;2.40;;;;;;;14.27;100.00;98517.66;5101100;28;20613;-76
2023/08/02 00:02:37;;;;;;;2.60;2.40;;;;;;;14.21;100.00;98526.00;5107159;28;20203;-75
2023/08/02 00:05:04;;;;;;;2.50;2.30;;;;;;;14.19;100.00;98531.66;5113640;28;20270;-75
2023/08/02 00:07:31;;;;;;;2.50;2.30;;;;;;;14.19;100.00;98534.34;5112002;28;20220;-75
2023/08/02 00:09:57;;;;;;;2.97;2.20;;;;;;;14.18;100.00;98538.16;5102021;28;20212;-75
2023/08/02 00:12:24;;;;;;;2.70;2.50;;;;;;;14.21;100.00;98540.28;5092676;28;20234;-75
2023/08/02 00:14:51;;;;;;;2.50;2.30;;;;;;;14.16;100.00;98540.28;5094325;28;20196;-74
2023/08/02 00:17:17;;;;;;;2.50;2.30;;;;;;;14.16;100.00;98539.47;5098106;28;20200;-75
2023/08/02 00:19:44;;;;;;;2.70;2.33;;;;;;;14.22;100.00;98539.22;5092051;28;20201;-75
2023/08/02 00:22:10;;;;;;;3.40;2.10;;;;;;;14.15;100.00;98537.84;5102077;28;20193;-74
2023/08/02 00:24:37;;;;;;;2.70;2.30;;;;;;;14.20;100.00;98545.94;5091705;28;20233;-74
2023/08/02 00:27:04;;;;;;;2.67;2.10;;;;;;;14.17;100.00;98546.50;5094268;28;20193;-75
2023/08/02 00:29:31;;;;;;;2.57;2.37;;;;;;;14.13;100.00;98540.84;5099251;28;20690;-77
2023/08/02 00:31:57;;;;;;;2.90;2.60;;;;;;;14.12;100.00;98544.59;5070955;28;20556;-78
2023/08/02 00:34:24;;;;;;;3.30;2.20;;;;;;;14.07;100.00;98540.00;5100805;28;20748;-76
2023/08/02 00:36:50;;;;;;;3.13;2.27;;;;;;;14.07;100.00;98545.41;5100908;28;20619;-75
2023/08/02 00:39:18;;;;;;;2.73;2.10;;;;;;;14.05;100.00;98552.94;5106820;28;20228;-75
2023/08/02 00:41:45;;;;;;;2.60;2.40;;;;;;;14.03;100.00;98554.28;5095796;28;20608;-76
2023/08/02 00:44:12;;;;;;;2.60;2.40;;;;;;;14.01;100.00;98541.09;5099996;28;20180;-75
2023/08/02 00:46:39;;;;;;;2.33;2.13;;;;;;;14.01;100.00;98545.66;5091090;28;20188;-76
2023/08/02 00:49:09;;;;;;;2.43;2.23;;;;;;;14.00;100.00;98547.53;5092850;28;20269;-75
2023/08/02 00:51:36;;;;;;;2.53;2.00;;;;;;;13.99;100.00;98559.41;5085148;28;20197;-75
2023/08/02 00:54:05;;;;;;;2.67;2.30;;;;;;;14.03;100.00;98554.28;5100444;28;20192;-75
2023/08/02 00:56:32;;;;;;;2.60;2.40;;;;;;;14.04;100.00;98550.53;5109915;28;20211;-76
2023/08/02 00:58:58;;;;;;;2.40;2.03;;;;;;;14.01;100.00;98548.34;5108595;28;20563;-75
2023/08/02 01:01:25;;;;;;;2.40;2.20;;;;;;;14.00;100.00;98549.41;5092708;28;20775;-75
2023/08/02 01:03:52;;;;;;;2.43;2.23;;;;;;;13.99;100.00;98555.91;5083478;28;20195;-77
2023/08/02 01:06:21;;;;;;;3.07;2.30;;;;;;;13.97;100.00;98550.78;5089153;28;20229;-76
2023/08/02 01:08:51;;;;;;;2.57;2.20;;;;;;;13.95;100.00;98542.13;5062388;28;20185;-75
2023/08/02 01:11:22;;;;;;;3.80;2.17;;;;;;;13.98;100.00;98543.50;5063054;28;20196;-76
2023/08/02 01:13:50;;;;;;;2.37;1.90;;;;;;;13.94;100.00;98545.94;5058468;28;20189;-75
2023/08/02 01:16:18;;;;;;;2.40;2.00;;;;;;;13.96;100.00;98543.75;5059687;28;20196;-74
2023/08/02 01:18:44;;;;;;;1.90;1.70;;;;;;;13.96;100.00;98542.94;5033876;28;20193;-76
2023/08/02 01:21:11;;;;;;;2.03;1.90;;;;;;;14.00;100.00;98549.41;5068289;28;20199;-76
2023/08/02 01:23:38;;;;;;;1.90;1.80;;;;;;;13.95;100.00;98549.44;5071628;28;20262;-75
2023/08/02 01:26:05;;;;;;;2.00;1.80;;;;;;;13.98;100.00;98547.00;5065585;28;20193;-75
2023/08/02 01:28:37;;;;;;;2.13;1.80;;;;;;;13.94;100.00;98554.00;5071803;28;20201;-75
2023/08/02 01:31:04;;;;;;;2.23;1.87;;;;;;;13.93;100.00;98563.16;5052434;28;20192;-76
2023/08/02 01:33:36;;;;;;;1.87;1.70;;;;;;;13.90;100.00;98560.19;5070540;28;20205;-77
2023/08/02 01:36:03;;;;;;;1.63;1.53;;;;;;;13.86;100.00;98562.59;5051620;28;20205;-75
2023/08/02 01:38:30;;;;;;;2.60;1.93;;;;;;;13.84;100.00;98570.16;5063309;28;20287;-76
2023/08/02 01:40:57;;;;;;;3.63;2.13;;;;;;;13.83;100.00;98563.13;5072141;28;20189;-77
2023/08/02 01:43:23;;;;;;;2.63;1.80;;;;;;;13.79;100.00;98558.56;5071994;28;20605;-76
2023/08/02 01:45:50;;;;;;;2.53;2.00;;;;;;;13.63;100.00;98555.81;5070985;28;20197;-76
2023/08/02 01:48:17;;;;;;;3.03;2.23;;;;;;;13.57;100.00;98551.50;5072231;28;20646;-76
2023/08/02 01:50:43;;;;;;;2.10;1.97;;;;;;;13.46;100.00;98555.22;5071891;28;20248;-76
2023/08/02 01:53:11;;;;;;;2.77;2.07;;;;;;;13.40;100.00;98550.91;5065231;28;20275;-76
2023/08/02 01:55:37;;;;;;;2.60;1.97;;;;;;;13.41;100.00;98555.22;5072109;28;20707;-75
2023/08/02 01:58:04;;;;;;;3.00;2.20;;;;;;;13.36;100.00;98559.75;5067678;28;20196;-77
2023/08/02 02:00:31;;;;;;;2.50;2.30;;;;;;;13.34;100.00;98556.53;5065244;28;20623;-76
2023/08/02 02:02:58;;;;;;;3.07;2.20;;;;;;;13.28;100.00;98547.63;5054636;28;20292;-76
2023/08/02 02:05:24;;;;;;;2.40;2.20;;;;;;;13.22;100.00;98544.09;5054266;28;20193;-77
2023/08/02 02:07:51;;;;;;;2.43;2.23;;;;;;;13.20;100.00;98548.16;5063488;28;20249;-76
2023/08/02 02:10:18;;;;;;;2.50;2.30;;;;;;;13.14;100.00;98551.88;5052472;28;20221;-76
2023/08/02 02:12:45;;;;;;;2.70;2.13;;;;;;;13.17;100.00;98575.53;5068907;28;20209;-76
2023/08/02 02:15:11;;;;;;;2.90;2.30;;;;;;;13.12;100.00;98565.56;5070681;28;20197;-75
2023/08/02 02:17:39;;;;;;;3.27;2.43;;;;;;;13.08;100.00;98566.31;5048786;28;20212;-76
2023/08/02 02:20:07;;;;;;;2.33;2.13;;;;;;;13.02;100.00;98570.84;5042343;28;20242;-75
2023/08/02 02:22:34;;;;;;;2.50;2.30;;;;;;;12.99;100.00;98568.69;5063146;28;20240;-76
2023/08/02 02:25:01;;;;;;;2.83;2.57;;;;;;;12.92;100.00;98568.13;5071206;28;20205;-74
2023/08/02 02:27:27;;;;;;;2.43;2.23;;;;;;;12.91;100.00;98571.06;5065518;28;20255;-75
2023/08/02 02:29:54;;;;;;;2.83;2.60;;;;;;;12.86;100.00;98577.22;5069313;28;20240;-75
2023/08/02 02:32:21;;;;;;;3.03;2.40;;;;;;;12.82;100.00;98583.38;5071420;28;20225;-76
2023/08/02 02:34:47;;;;;;;2.80;2.60;;;;;;;12.78;100.00;98578.50;5071087;28;20723;-75
2023/08/02 02:37:14;;;;;;;2.60;2.40;;;;;;;12.75;100.00;98570.97;5063751;28;20205;-77
2023/08/02 02:39:40;;;;;;;3.20;2.57;;;;;;;12.75;100.00;98572.84;5075047;28;20250;-75
2023/08/02 02:42:07;;;;;;;4.27;2.43;;;;;;;12.74;100.00;98574.72;5074794;28;20283;-76
2023/08/02 02:44:41;;;;;;;4.03;2.80;;;;;;;12.74;100.00;98585.47;5071846;28;20291;-75
2023/08/02 02:47:09;;;;;;;2.70;2.50;;;;;;;12.74;100.00;98592.72;5074525;28;20197;-76
2023/08/02 02:49:37;;;;;;;3.17;2.57;;;;;;;12.71;100.00;98586.00;5074975;28;20205;-76
2023/08/02 02:52:04;;;;;;;2.93;2.60;;;;;;;12.69;100.00;98582.75;5074435;28;20251;-76
2023/08/02 02:54:31;;;;;;;3.87;2.50;;;;;;;12.77;100.00;98576.91;5067613;28;20229;-75
2023/08/02 02:56:58;;;;;;;2.57;2.37;;;;;;;12.75;100.00;98588.97;5074439;28;20213;-76
2023/08/02 02:59:27;;;;;;;3.30;2.60;;;;;;;12.79;100.00;98588.19;5074201;28;20682;-78
2023/08/02 03:01:53;;;;;;;2.63;2.43;;;;;;;12.84;100.00;98589.28;5071428;28;20243;-75
2023/08/02 03:04:20;;;;;;;3.20;3.00;;;;;;;12.83;100.00;98582.31;5071104;28;20193;-79
2023/08/02 03:06:47;;;;;;;3.30;2.70;;;;;;;12.82;100.00;98580.69;5068473;28;20320;-77
2023/08/02 03:09:14;;;;;;;3.97;2.47;;;;;;;12.82;100.00;98581.50;5091859;28;20246;-76
2023/08/02 03:11:40;;;;;;;3.30;3.00;;;;;;;12.79;100.00;98577.44;5094452;28;20295;-76
2023/08/02 03:14:07;;;;;;;3.50;2.70;;;;;;;12.81;100.00;98574.50;5094351;28;20231;-75
2023/08/02 03:16:33;;;;;;;2.97;2.67;;;;;;;12.78;100.00;98585.78;5094364;28;20216;-76
2023/08/02 03:19:00;;;;;;;3.13;2.83;;;;;;;12.76;100.00;98582.53;5094070;28;20193;-76
2023/08/02 03:21:27;;;;;;;2.93;2.60;;;;;;;12.75;100.00;98584.41;5094093;28;20215;-75
2023/08/02 03:23:53;;;;;;;3.47;2.93;;;;;;;12.77;100.00;98582.28;5093942;28;20192;-75
2023/08/02 03:26:20;;;;;;;3.37;3.07;;;;;;;12.73;100.00;98581.19;5094208;28;20293;-76
2023/08/02 03:28:47;;;;;;;3.00;2.80;;;;;;;12.69;100.00;98582.75;5091621;28;20223;-76
2023/08/02 03:31:13;;;;;;;3.00;2.67;;;;;;;12.72;100.00;98578.75;5093862;28;20773;-76
2023/08/02 03:33:41;;;;;;;3.27;3.00;;;;;;;12.73;100.00;98575.00;5093510;28;20690;-77
2023/08/02 03:36:08;;;;;;;3.47;3.17;;;;;;;12.69;100.00;98582.75;5092828;28;20658;-76
2023/08/02 03:38:34;;;;;;;3.73;2.93;;;;;;;12.70;100.00;98588.94;5093661;28;20215;-75
2023/08/02 03:41:01;;;;;;;3.23;2.83;;;;;;;12.71;100.00;98595.94;5093982;28;20228;-75
2023/08/02 03:43:28;;;;;;;3.10;2.80;;;;;;;12.70;100.00;98584.38;5091858;28;20197;-75
2023/08/02 03:45:54;;;;;;;5.30;2.87;;;;;;;12.69;100.00;98579.28;5088071;28;20292;-75
2023/08/02 03:48:21;;;;;;;4.10;2.70;;;;;;;12.69;100.00;98576.59;5092904;28;20208;-76
2023/08/02 03:50:48;;;;;;;3.07;2.50;;;;;;;12.71;100.00;98571.75;5085336;28;20208;-76
2023/08/02 03:53:14;;;;;;;3.83;2.70;;;;;;;12.75;100.00;98584.41;5093556;28;20246;-75
2023/08/02 03:55:41;;;;;;;5.43;2.63;;;;;;;12.76;100.00;98574.47;5091929;28;20251;-76
2023/08/02 03:58:08;;;;;;;3.03;2.73;;;;;;;12.82;100.00;98578.00;5091923;28;20197;-76
2023/08/02 04:00:34;;;;;;;2.90;2.67;;;;;;;12.87;100.00;98589.63;5093566;28;20265;-76
2023/08/02 04:03:01;;;;;;;2.53;2.33;;;;;;;13.22;100.00;98597.91;5093190;28;20667;-75
2023/08/02 04:05:27;;;;;;;2.80;2.60;;;;;;;13.78;100.00;98603.50;5093168;28;20185;-76
2023/08/02 04:07:54;;;;;;;2.80;2.60;;;;;;;13.91;100.00;98602.19;5111301;28;20276;-75
2023/08/02 04:10:21;;;;;;;4.13;2.70;;;;;;;14.69;100.00;98613.63;5105515;28;20581;-75
2023/08/02 04:12:53;;;;;;;3.43;2.93;;;;;;;15.85;100.00;98603.31;5102771;28;20306;-79
2023/08/02 04:15:19;;;;;;;2.70;2.50;;;;;;;15.96;100.00;98595.94;5093790;28;20193;-78
2023/08/02 04:17:48;;;;;;;3.27;2.50;;;;;;;15.51;100.00;98578.09;5072981;28;20270;-77
2023/08/02 04:20:15;;;;;;;3.10;2.40;;;;;;;15.10;100.00;98579.31;5099496;28;20563;-76
2023/08/02 04:22:42;;;;;;;5.53;2.10;;;;;;;14.85;100.00;98593.63;5093302;28;20193;-76
2023/08/02 04:25:09;;;;;;;2.60;2.27;;;;;;;14.73;100.00;98591.25;5085736;28;20223;-79
2023/08/02 04:27:35;;;;;;;3.23;2.47;;;;;;;14.65;100.00;98590.97;5097736;28;20184;-77
2023/08/02 04:30:02;;;;;;;3.57;2.73;;;;;;;14.62;100.00;98595.00;5106981;28;20855;-76
2023/08/02 04:32:30;;;;;;;2.57;2.10;;;;;;;14.66;100.00;98593.38;5098077;28;20211;-76
2023/08/02 04:34:57;;;;;;;2.53;2.33;;;;;;;14.69;100.00;98597.44;5080340;28;20197;-78
2023/08/02 04:37:24;;;;;;;2.50;2.30;;;;;;;14.75;100.00;98596.34;5101100;28;20192;-77
2023/08/02 04:39:50;;;;;;;2.50;2.30;;;;;;;14.78;100.00;98590.44;5101514;28;20228;-76
2023/08/02 04:42:17;;;;;;;3.00;2.70;;;;;;;14.84;100.00;98595.53;5098429;28;20187;-76
2023/08/02 04:44:44;;;;;;;3.87;2.63;;;;;;;14.95;100.00;98599.81;5103438;28;20199;-75
2023/08/02 04:47:10;;;;;;;3.40;2.40;;;;;;;14.99;100.00;98584.72;5102641;28;20602;-76
2023/08/02 04:49:37;;;;;;;4.50;2.50;;;;;;;15.07;100.00;98586.03;5101700;28;20222;-76
2023/08/02 04:52:04;;;;;;;2.93;2.20;;;;;;;15.19;100.00;98583.06;5104957;28;20235;-76
2023/08/02 04:54:31;;;;;;;2.70;2.50;;;;;;;15.34;100.00;98575.72;5103896;28;20243;-76
2023/08/02 04:56:57;;;;;;;2.60;2.40;;;;;;;15.50;100.00;98586.44;5093795;28;20188;-76
2023/08/02 04:59:24;;;;;;;2.50;2.30;;;;;;;15.63;100.00;98597.47;5098253;28;20184;-76
2023/08/02 05:01:51;;;;;;;2.40;2.20;;;;;;;15.78;100.00;98602.00;5085067;28;20196;-76
2023/08/02 05:04:17;;;;;;;3.33;2.60;;;;;;;15.95;100.00;98604.34;5102484;28;20196;-76
2023/08/02 05:06:44;;;;;;;4.47;2.47;;;;;;;16.10;100.00;98607.75;5086907;28;20236;-75
2023/08/02 05:09:11;;;;;;;3.17;2.50;;;;;;;16.26;100.00;98611.97;5064408;28;20656;-77
2023/08/02 05:11:41;;;;;;;2.73;2.17;;;;;;;16.41;100.00;98599.44;5071047;28;20304;-77
2023/08/02 05:14:08;;;;;;;2.80;2.20;;;;;;;16.60;100.00;98611.22;5069541;28;20220;-76
2023/08/02 05:16:36;;;;;;;3.30;2.10;;;;;;;16.74;100.00;98609.47;5057694;28;20190;-76
2023/08/02 05:19:03;;;;;;;2.53;2.10;;;;;;;16.93;100.00;98612.28;5070074;28;20193;-76
2023/08/02 05:21:30;;;;;;;2.50;2.00;;;;;;;17.13;100.00;98614.78;5071579;28;20221;-76
2023/08/02 05:23:57;;;;;;;3.00;1.90;;;;;;;17.26;100.00;98613.31;5071104;28;20275;-76
2023/08/02 05:26:23;;;;;;;2.33;2.13;;;;;;;17.47;100.00;98604.66;5071441;28;20247;-78
2023/08/02 05:28:50;;;;;;;1.50;1.40;;;;;;;17.67;100.00;98600.13;5070941;28;20673;-76
2023/08/02 05:31:17;;;;;;;1.73;1.63;;;;;;;17.84;100.00;98611.25;5071099;28;20917;-75
2023/08/02 05:33:46;;;;;;;3.83;1.90;;;;;;;18.06;100.00;98619.63;5070948;28;20294;-76
2023/08/02 05:36:14;;;;;;;2.63;1.80;;;;;;;18.28;100.00;98624.47;5071467;28;20199;-76
2023/08/02 05:38:42;;;;;;;2.23;1.90;;;;;;;18.48;100.00;98624.97;5071229;28;20281;-75
2023/08/02 05:41:08;;;;;;;2.27;1.80;;;;;;;18.70;100.00;98631.72;5053856;28;20230;-75
2023/08/02 05:43:36;;;;;;;2.37;1.60;;;;;;;18.85;100.00;98631.44;5071215;28;20194;-75
2023/08/02 05:46:02;;;;;;;1.97;1.50;;;;;;;18.95;100.00;98633.19;5065594;28;20204;-76
2023/08/02 05:48:29;;;;;;;1.50;1.40;;;;;;;19.12;100.00;98631.53;5071403;28;20570;-76
2023/08/02 05:50:56;;;;;;;1.50;1.40;;;;;;;19.24;100.00;98629.13;5066112;28;20299;-79
2023/08/02 05:53:22;;;;;;;2.70;1.57;;;;;;;19.42;100.00;98641.00;5070971;28;20243;-79
2023/08/02 05:55:49;;;;;;;1.73;1.37;;;;;;;19.57;100.00;98634.50;5070916;28;20186;-79
2023/08/02 05:58:16;;;;;;;1.50;1.40;;;;;;;19.70;100.00;98641.84;5064844;28;20194;-77
2023/08/02 06:00:43;;;;;;;3.80;1.80;;;;;;;19.82;100.00;98646.78;5066838;28;20211;-77
2023/08/02 06:03:09;;;;;;;1.60;1.50;;;;;;;19.95;100.00;98641.31;5049689;28;20210;-75
2023/08/02 06:05:36;;;;;;;1.90;1.80;;;;;;;20.03;100.00;98632.44;5066891;28;20195;-75
2023/08/02 06:08:03;;;;;;;2.10;1.90;;;;;;;20.07;100.00;98638.06;5097659;28;20318;-74
2023/08/02 06:10:30;;;;;;;2.10;1.90;;;;;;;20.04;100.00;98644.13;5089030;28;20212;-75
2023/08/02 06:12:57;;;;;;;4.37;1.97;;;;;;;20.13;100.00;98636.84;5106158;28;20224;-77
2023/08/02 06:15:24;;;;;;;2.20;1.90;;;;;;;20.22;100.00;98632.31;5098395;28;20646;-75
2023/08/02 06:17:51;;;;;;;1.70;1.60;;;;;;;20.34;100.00;98629.91;5101337;28;20300;-77
2023/08/02 06:20:18;;;;;;;1.88;1.77;;;;;;;20.43;100.00;98625.31;5095790;28;20268;-75
2023/08/02 06:22:44;;;;;;;1.60;1.50;;;;;;;20.51;100.00;98624.59;5105681;28;20191;-75
2023/08/02 06:25:11;;;;;;;1.60;1.50;;;;;;;20.71;100.00;98617.84;5090412;28;20248;-75
2023/08/02 06:27:37;;;;;;;1.60;1.33;;;;;;;20.93;100.00;98623.28;5090638;28;20230;-75
2023/08/02 06:30:05;;;;;;;2.38;1.50;;;;;;;21.18;100.00;98615.59;5094978;28;20270;-74
2023/08/02 06:32:31;;;;;;;1.45;1.33;;;;;;;21.44;100.00;98613.78;5090858;28;20216;-75
2023/08/02 06:34:58;;;;;;;1.40;1.30;;;;;;;21.62;100.00;98604.53;5103037;28;20647;-75
2023/08/02 06:37:25;;;;;;;1.90;1.40;;;;;;;21.65;100.00;98590.25;5114762;28;20215;-74
2023/08/02 06:39:51;;;;;;;2.80;1.40;;;;;;;21.76;100.00;98602.47;5106751;28;20286;-75
2023/08/02 06:42:18;;;;;;;1.58;1.35;;;;;;;21.77;100.00;98601.38;5111148;28;20204;-75
2023/08/02 06:44:45;;;;;;;1.88;1.20;;;;;;;21.98;100.00;98595.34;5106255;28;20226;-74
2023/08/02 06:47:11;;;;;;;2.38;1.10;;;;;;;22.07;100.00;98583.31;5101871;28;20188;-75
2023/08/02 06:49:38;;;;;;;1.40;1.30;;;;;;;22.31;100.00;98591.81;5097711;28;20203;-75
2023/08/02 06:52:05;;;;;;;1.73;1.35;;;;;;;22.51;100.00;98595.03;5105623;28;20239;-75
2023/08/02 06:54:32;;;;;;;1.30;1.17;;;;;;;22.71;100.00;98600.66;5113417;28;20729;-75
2023/08/02 06:56:58;;;;;;;2.40;1.33;;;;;;;22.80;100.00;98596.00;5109124;28;20201;-74
2023/08/02 06:59:25;;;;;;;1.50;1.40;;;;;;;22.79;100.00;98599.03;5104798;28;20194;-74
2023/08/02 07:01:52;;;;;;;1.80;1.40;;;;;;;22.85;100.00;98592.28;5092007;28;20562;-74
2023/08/02 07:04:19;;;;;;;2.25;1.40;;;;;;;22.77;100.00;98596.63;5090150;28;20254;-75
2023/08/02 07:06:46;;;;;;;1.50;1.40;;;;;;;22.90;100.00;98600.31;5101876;28;20281;-75
2023/08/02 07:09:14;;;;;;;1.27;1.17;;;;;;;23.03;100.00;98596.56;5093787;28;20272;-75
2023/08/02 07:11:40;;;;;;;1.65;1.23;;;;;;;23.03;100.00;98585.66;5087411;28;20231;-75
2023/08/02 07:14:07;;;;;;;2.03;1.40;;;;;;;23.16;100.00;98586.56;5105641;28;20210;-75
2023/08/02 07:16:34;;;;;;;1.50;1.40;;;;;;;23.26;100.00;98586.22;5100460;28;20284;-75
2023/08/02 07:19:02;;;;;;;1.42;1.33;;;;;;;23.40;100.00;98597.72;5089237;28;20198;-74
2023/08/02 07:21:30;;;;;;;3.00;1.70;;;;;;;23.55;100.00;98597.22;5076328;28;20613;-76
2023/08/02 07:23:56;;;;;;;1.48;1.38;;;;;;;23.58;100.00;98604.75;5099276;28;20188;-75
2023/08/02 07:26:23;;;;;;;1.60;1.50;;;;;;;23.66;100.00;98603.09;5089313;28;20199;-76
2023/08/02 07:28:50;;;;;;;1.70;1.60;;;;;;;23.80;100.00;98598.19;5081019;28;20206;-75
2023/08/02 07:31:16;;;;;;;2.03;1.63;;;;;;;23.91;100.00;98604.88;5101907;28;20214;-75
2023/08/02 07:33:45;;;;;;;2.75;1.50;;;;;;;24.03;100.00;98599.47;5103472;28;20300;-77
2023/08/02 07:36:14;;;;;;;1.77;1.27;;;;;;;24.09;100.00;98592.69;5107475;28;20184;-75
2023/08/02 07:38:41;;;;;;;2.85;1.63;;;;;;;24.19;100.00;98596.19;5095534;28;20252;-76
2023/08/02 07:41:08;;;;;;;1.60;1.50;;;;;;;24.12;100.00;98588.50;5105266;28;20194;-76
2023/08/02 07:43:34;;;;;;;1.95;1.50;;;;;;;24.29;100.00;98584.84;5101941;28;20215;-75
2023/08/02 07:46:01;;;;;;;2.65;1.60;;;;;;;24.40;100.00;98586.06;5098469;28;20235;-75
2023/08/02 07:48:28;;;;;;;1.38;1.27;;;;;;;24.64;100.00;98582.59;5109253;28;20198;-75
2023/08/02 07:50:55;;;;;;;2.47;1.60;;;;;;;24.91;100.00;98588.31;5094812;28;20295;-75
2023/08/02 07:53:21;;;;;;;1.60;1.50;;;;;;;25.12;100.00;98579.22;5104585;28;20198;-75
2023/08/02 07:55:49;;;;;;;1.73;1.45;;;;;;;25.26;100.00;98582.44;5104188;28;20229;-75
2023/08/02 07:58:16;;;;;;;2.17;1.30;;;;;;;25.33;100.00;98575.25;5098417;28;20665;-76
2023/08/02 08:00:43;;;;;;;1.70;1.33;;;;;;;25.54;100.00;98577.91;5098927;28;20199;-77
2023/08/02 08:03:09;;;;;;;1.48;1.38;;;;;;;25.59;100.00;98574.13;5107743;28;20275;-75
2023/08/02 08:05:36;;;;;;;1.50;1.40;;;;;;;25.65;100.00;98573.56;5105295;28;20241;-76
2023/08/02 08:08:03;;;;;;;2.53;1.50;;;;;;;25.75;100.00;98575.84;5113453;28;20238;-77
2023/08/02 08:10:29;;;;;;;2.35;1.75;;;;;;;25.80;100.00;98577.56;5104676;28;20219;-77
2023/08/02 08:12:56;;;;;;;1.50;1.40;;;;;;;25.84;100.00;98575.72;5112736;28;20616;-77
2023/08/02 08:15:23;;;;;;;1.40;1.30;;;;;;;25.91;98.94;98566.88;5096799;28;20618;-76
2023/08/02 08:17:50;;;;;;;1.48;1.23;;;;;;;25.97;93.46;98560.03;5112794;28;20195;-75
2023/08/02 08:20:19;;;;;;;1.25;1.20;;;;;;;25.96;93.46;98552.94;5102374;28;20196;-78
2023/08/02 08:22:47;;;;;;;1.20;1.10;;;;;;;25.94;89.47;98549.75;5105074;28;20227;-76
2023/08/02 08:25:13;;;;;;;1.20;1.10;;;;;;;25.87;86.32;98555.81;5111345;28;20621;-76
2023/08/02 08:27:40;;;;;;;1.45;1.20;;;;;;;25.77;87.05;98556.28;5105184;28;20219;-75
2023/08/02 08:30:07;;;;;;;2.45;1.08;;;;;;;25.82;88.57;98554.09;5108056;28;20272;-76
2023/08/02 08:32:34;;;;;;;1.15;1.05;;;;;;;25.75;86.74;98551.16;5108950;28;20693;-76
2023/08/02 08:35:01;;;;;;;1.63;1.15;;;;;;;25.77;86.86;98543.38;5077693;28;20271;-76
2023/08/02 08:37:28;;;;;;;2.28;1.27;;;;;;;25.70;88.22;98548.66;5089333;28;20647;-76
2023/08/02 08:39:55;;;;;;;2.15;1.30;;;;;;;25.71;90.97;98541.22;5100699;28;20215;-76
2023/08/02 08:42:49;;;;;;;2.03;1.40;;;;;;;25.67;89.08;98543.03;5111535;28;20274;-75
2023/08/02 08:45:22;;;;;;;1.27;1.10;;;;;;;25.61;87.19;98542.50;5111871;28;20196;-79
2023/08/02 08:47:50;;;;;;;3.17;1.40;;;;;;;25.60;85.83;98542.81;5112358;28;20198;-76
2023/08/02 08:50:19;;;;;;;3.25;1.40;;;;;;;25.65;83.88;98535.16;5112078;28;20200;-80
2023/08/02 08:52:47;;;;;;;1.60;1.30;;;;;;;25.80;87.35;98533.66;5098236;28;20303;-77
2023/08/02 08:55:15;;;;;;;1.20;1.10;;;;;;;25.81;85.47;98525.06;5107210;28;20623;-76
2023/08/02 08:57:45;;;;;;;1.20;1.10;;;;;;;25.94;82.77;98520.38;5099611;28;20218;-79
2023/08/02 09:00:13;;;;;;;2.10;1.30;;;;;;;26.06;86.65;98520.31;5104139;28;20193;-76
2023/08/02 09:02:41;;;;;;;1.73;1.48;;;;;;;26.15;86.06;98518.22;5109589;28;20217;-77
2023/08/02 09:05:08;;;;;;;1.45;1.30;;;;;;;26.47;85.52;98523.84;5112319;28;20196;-78
2023/08/02 09:07:35;;;;;;;2.20;1.42;;;;;;;26.87;84.20;98524.59;5092718;28;20613;-75
2023/08/02 09:10:01;;;;;;;1.33;1.23;;;;;;;27.19;82.08;98519.88;5095212;28;20684;-76
2023/08/02 09:12:29;;;;;;;2.55;1.42;;;;;;;27.42;78.97;98518.09;5106012;28;20231;-77
2023/08/02 09:15:05;;;;;;;2.88;1.38;;;;;;;27.40;81.44;98516.84;5111893;28;20195;-76
2023/08/02 09:17:52;;;;;;;1.30;1.20;;;;;;;27.73;78.73;98520.00;5092842;28;20196;-77
2023/08/02 09:20:22;;;;;;;2.15;1.30;;;;;;;28.06;79.12;98511.25;5111479;28;20192;-78
2023/08/02 09:22:49;;;;;;;2.20;1.20;;;;;;;28.23;75.93;98512.84;5098115;28;20200;-78
2023/08/02 09:25:27;;;;;;;1.55;1.40;;;;;;;28.48;72.86;98511.34;5109071;28;20247;-79
2023/08/02 09:27:55;;;;;;;1.42;1.30;;;;;;;28.76;73.17;98509.16;5108429;28;20665;-80
2023/08/02 09:30:27;;;;;;;1.40;1.30;;;;;;;29.10;70.15;98503.84;5105065;28;20253;-77
2023/08/02 09:33:07;;;;;;;1.45;1.35;;;;;;;29.02;68.52;98491.09;5107666;28;20708;-80
2023/08/02 09:35:47;;;;;;;1.30;1.20;;;;;;;28.79;68.88;98491.88;5093444;28;20197;-78
2023/08/02 09:38:16;;;;;;;2.03;1.30;;;;;;;28.85;68.71;98484.91;5092624;28;20195;-77
2023/08/02 09:40:47;;;;;;;1.33;1.23;;;;;;;28.82;69.18;98480.13;5079714;28;20746;-78
2023/08/02 09:43:33;;;;;;;1.95;1.30;;;;;;;28.86;76.73;98478.22;5101873;28;20268;-79
2023/08/02 09:46:00;;;;;;;1.33;1.23;;;;;;;28.67;78.69;98467.22;5095897;28;20267;-79
2023/08/02 09:48:35;;;;;;;1.50;1.40;;;;;;;28.72;78.03;98466.16;5115778;28;20192;-78
2023/08/02 09:51:03;;;;;;;1.63;1.30;;;;;;;28.41;78.17;98475.41;5088599;28;20188;-78
2023/08/02 09:53:31;;;;;;;1.77;1.27;;;;;;;28.35;80.00;98474.13;5107835;28;20188;-80
2023/08/02 09:56:00;;;;;;;1.40;1.15;;;;;;;28.20;79.50;98473.03;5097574;28;20221;-76
2023/08/02 09:58:29;;;;;;;2.13;1.70;;;;;;;28.19;80.28;98459.63;5109070;28;20192;-77
2023/08/02 10:00:55;;;;;;;1.23;1.13;;;;;;;28.15;81.53;98454.06;5097458;28;20686;-76
2023/08/02 10:03:26;;;;;;;1.25;1.15;;;;;;;28.01;83.75;98459.25;5097310;28;20225;-75
2023/08/02 10:05:56;;;;;;;1.40;1.15;;;;;;;27.89;82.05;98462.16;5072736;28;20191;-78
2023/08/02 10:08:23;;;;;;;1.23;1.13;;;;;;;28.01;82.75;98467.50;5097200;28;20220;-76
2023/08/02 10:10:52;;;;;;;1.77;1.40;;;;;;;27.94;84.92;98454.41;5087920;28;20192;-79
2023/08/02 10:13:25;;;;;;;1.90;1.20;;;;;;;28.02;83.99;98445.13;5111022;28;20681;-78
2023/08/02 10:15:52;;;;;;;2.30;1.20;;;;;;;28.08;82.79;98431.88;5107747;28;20256;-79
2023/08/02 10:18:18;;;;;;;1.98;1.40;;;;;;;27.80;83.96;98425.78;5095421;28;20184;-79
2023/08/02 10:20:46;;;;;;;1.33;1.20;;;;;;;27.60;86.00;98422.22;5096764;28;20568;-78
2023/08/02 10:23:12;;;;;;;2.38;1.27;;;;;;;27.68;88.38;98432.22;5115034;28;20195;-77
2023/08/02 10:25:41;;;;;;;1.67;1.38;;;;;;;27.77;85.49;98426.50;5114670;28;20212;-76
2023/08/02 10:28:08;;;;;;;1.50;1.17;;;;;;;28.24;83.31;98415.28;5075150;28;20275;-78
2023/08/02 10:30:35;;;;;;;1.75;1.20;;;;;;;28.46;84.41;98422.78;5101073;28;20685;-77
2023/08/02 10:33:19;;;;;;;2.35;1.23;;;;;;;28.50;83.84;98409.06;5092079;28;20699;-78
2023/08/02 10:36:03;;;;;;;1.23;1.10;;;;;;;28.30;77.87;98392.59;5080989;28;20539;-76
2023/08/02 10:38:38;;;;;;;1.60;1.13;;;;;;;28.66;78.75;98393.19;5107737;28;20221;-76
2023/08/02 10:41:07;;;;;;;1.50;1.00;;;;;;;28.95;74.63;98397.22;5111536;28;20199;-79
2023/08/02 10:43:34;;;;;;;1.10;1.00;;;;;;;29.40;73.07;98383.34;5099277;28;20199;-78
2023/08/02 10:46:17;;;;;;;1.80;1.20;;;;;;;29.61;72.13;98378.13;5113508;28;20604;-78
2023/08/02 10:48:44;;;;;;;1.55;1.05;;;;;;;30.04;70.47;98376.69;5081741;28;20188;-78
2023/08/02 10:51:33;;;;;;;1.65;1.20;;;;;;;30.23;69.44;98380.41;5104351;28;20268;-78
2023/08/02 10:54:08;;;;;;;2.13;1.05;;;;;;;30.63;67.02;98368.56;5094939;28;20195;-78
2023/08/02 10:56:56;;;;;;;1.52;1.10;;;;;;;30.58;63.44;98364.97;5111910;28;20223;-78
2023/08/02 10:59:22;;;;;;;1.73;0.85;;;;;;;30.30;63.40;98359.16;5105769;28;20196;-78
2023/08/02 11:02:01;;;;;;;1.10;1.10;;;;;;;29.87;65.74;98357.09;5114211;28;20195;-78
2023/08/02 11:04:30;;;;;;;1.23;1.00;;;;;;;29.87;64.36;98357.09;5113720;28;20621;-78
2023/08/02 11:07:11;;;;;;;1.23;1.02;;;;;;;29.63;64.23;98339.88;5106714;28;20342;-78
2023/08/02 11:09:38;;;;;;;1.00;0.90;;;;;;;29.69;61.63;98337.59;5076383;28;20194;-77
2023/08/02 11:12:11;;;;;;;1.13;0.90;;;;;;;29.68;59.21;98336.78;5099726;28;20227;-77
2023/08/02 11:14:39;;;;;;;2.40;1.15;;;;;;;29.87;59.74;98335.00;5106075;28;20192;-77
2023/08/02 11:17:07;;;;;;;1.40;0.95;;;;;;;29.95;58.08;98323.72;5098946;28;20193;-77
2023/08/02 11:19:37;;;;;;;1.02;1.00;;;;;;;29.98;57.35;98325.72;5085054;28;20240;-76
2023/08/02 11:22:04;;;;;;;1.55;1.00;;;;;;;30.05;56.33;98325.00;5105255;28;20636;-76
2023/08/02 11:24:54;;;;;;;1.90;0.93;;;;;;;30.30;57.97;98312.19;5096666;28;20192;-79
2023/08/02 11:27:23;;;;;;;1.30;0.90;;;;;;;29.98;55.45;98300.06;5074262;28;21208;-76
2023/08/02 11:29:58;;;;;;;1.58;0.75;;;;;;;29.86;57.02;98309.41;5079636;28;20557;-78